createdAt,value
2017-02-11T00:00:38.316Z,0
2017-02-11T00:01:37.972Z,0
2017-02-11T00:02:37.946Z,0
2017-02-11T00:03:37.696Z,0
2017-02-11T00:04:37.086Z,0
2017-02-11T00:05:36.715Z,0
2017-02-11T00:06:37.491Z,0
2017-02-11T00:07:37.999Z,0
2017-02-11T00:08:37.982Z,0
2017-02-11T00:09:37.738Z,0
2017-02-11T00:10:38.432Z,0
2017-02-11T00:11:36.865Z,0
2017-02-11T00:12:37.294Z,0
2017-02-11T00:13:37.974Z,0
2017-02-11T00:14:36.951Z,0
2017-02-11T00:15:37.375Z,0
2017-02-11T00:16:37.405Z,0
2017-02-11T00:17:37.430Z,0
2017-02-11T00:18:37.558Z,0
2017-02-11T00:19:37.485Z,0
2017-02-11T00:20:37.515Z,0
2017-02-11T00:21:37.537Z,0
2017-02-11T00:22:37.956Z,0
2017-02-11T00:23:37.834Z,0
2017-02-11T00:24:37.648Z,0
2017-02-11T00:25:36.848Z,0
2017-02-11T00:26:37.664Z,0
2017-02-11T00:27:37.289Z,0
2017-02-11T00:28:38.370Z,0
2017-02-11T00:29:37.771Z,0
2017-02-11T00:30:38.168Z,0
2017-02-11T00:31:37.404Z,0
2017-02-11T00:32:38.229Z,0
2017-02-11T00:33:38.357Z,0
2017-02-11T00:34:38.282Z,0
2017-02-11T00:35:37.906Z,0
2017-02-11T00:36:37.135Z,0
2017-02-11T00:37:38.353Z,0
2017-02-11T00:38:38.233Z,0
2017-02-11T00:39:38.410Z,0
2017-02-11T00:40:38.036Z,0
2017-02-11T00:41:37.671Z,0
2017-02-11T00:42:38.088Z,0
2017-02-11T00:43:37.977Z,0
2017-02-11T00:44:38.541Z,0
2017-02-11T00:45:38.171Z,0
2017-02-11T00:46:38.199Z,0
2017-02-11T00:47:37.828Z,0
2017-02-11T00:48:39.152Z,0
2017-02-11T00:49:38.278Z,0
2017-02-11T00:50:38.697Z,0
2017-02-11T00:51:37.945Z,0
2017-02-11T00:52:37.960Z,0
2017-02-11T00:53:38.662Z,0
2017-02-11T00:54:38.015Z,0
2017-02-11T00:55:38.829Z,0
2017-02-11T00:56:38.850Z,0
2017-02-11T00:57:38.087Z,0
2017-02-11T00:58:38.114Z,0
2017-02-11T00:59:38.788Z,0
2017-02-11T01:00:38.955Z,0
2017-02-11T01:01:38.592Z,0
2017-02-11T01:02:39.012Z,0
2017-02-11T01:03:38.273Z,0
2017-02-11T01:04:38.126Z,0
2017-02-11T01:05:38.291Z,0
2017-02-11T01:06:38.327Z,0
2017-02-11T01:07:39.144Z,0
2017-02-11T01:08:39.210Z,0
2017-02-11T01:09:39.456Z,0
2017-02-11T01:10:38.821Z,0
2017-02-11T01:11:38.850Z,0
2017-02-11T01:12:38.093Z,0
2017-02-11T01:13:38.112Z,0
2017-02-11T01:14:39.185Z,0
2017-02-11T01:15:38.165Z,0
2017-02-11T01:16:38.582Z,0
2017-02-11T01:17:39.407Z,0
2017-02-11T01:18:39.436Z,0
2017-02-11T01:19:39.707Z,0
2017-02-11T01:20:39.475Z,0
2017-02-11T01:21:39.512Z,0
2017-02-11T01:22:39.136Z,0
2017-02-11T01:23:39.566Z,0
2017-02-11T01:24:39.298Z,0
2017-02-11T01:25:38.433Z,0
2017-02-11T01:26:39.243Z,0
2017-02-11T01:27:38.872Z,0
2017-02-11T01:28:39.308Z,0
2017-02-11T01:29:39.578Z,0
2017-02-11T01:30:38.555Z,0
2017-02-11T01:31:39.383Z,0
2017-02-11T01:32:39.007Z,0
2017-02-11T01:33:39.433Z,0
2017-02-11T01:34:38.913Z,0
2017-02-11T01:35:38.718Z,0
2017-02-11T01:36:39.126Z,0
2017-02-11T01:37:39.548Z,0
2017-02-11T01:38:39.558Z,0
2017-02-11T01:39:39.843Z,0
2017-02-11T01:40:39.213Z,0
2017-02-11T01:41:39.632Z,0
2017-02-11T01:42:39.275Z,0
2017-02-11T01:43:39.692Z,0
2017-02-11T01:44:39.815Z,0
2017-02-11T01:45:40.149Z,0
2017-02-11T01:46:39.766Z,0
2017-02-11T01:47:39.791Z,0
2017-02-11T01:48:39.832Z,0
2017-02-11T01:49:40.112Z,0
2017-02-11T01:50:39.876Z,0
2017-02-11T01:51:40.297Z,0
2017-02-11T01:52:39.930Z,0
2017-02-11T01:53:39.552Z,0
2017-02-11T01:54:40.224Z,0
2017-02-11T01:55:40.011Z,0
2017-02-11T01:56:40.033Z,0
2017-02-11T01:57:40.059Z,0
2017-02-11T01:58:40.482Z,0
2017-02-11T01:59:39.318Z,0
2017-02-11T02:00:40.396Z,0
2017-02-11T02:01:39.765Z,0
2017-02-11T02:02:40.189Z,0
2017-02-11T02:03:40.219Z,0
2017-02-11T02:04:39.847Z,0
2017-02-11T02:05:40.920Z,0
2017-02-11T02:06:40.730Z,0
2017-02-11T02:07:39.524Z,0
2017-02-11T02:08:39.954Z,0
2017-02-11T02:09:40.375Z,0
2017-02-11T02:10:40.647Z,0
2017-02-11T02:11:40.042Z,0
2017-02-11T02:12:40.449Z,0
2017-02-11T02:13:40.514Z,0
2017-02-11T02:14:40.902Z,0
2017-02-11T02:15:41.174Z,0
2017-02-11T02:16:40.952Z,0
2017-02-11T02:17:40.584Z,0
2017-02-11T02:18:40.209Z,0
2017-02-11T02:19:40.244Z,0
2017-02-11T02:20:40.911Z,0
2017-02-11T02:21:40.680Z,0
2017-02-11T02:22:41.120Z,0
2017-02-11T02:23:40.741Z,0
2017-02-11T02:24:40.765Z,0
2017-02-11T02:25:40.658Z,0
2017-02-11T02:26:40.819Z,0
2017-02-11T02:27:40.447Z,0
2017-02-11T02:28:41.264Z,0
2017-02-11T02:29:40.502Z,0
2017-02-11T02:30:41.424Z,0
2017-02-11T02:31:41.352Z,0
2017-02-11T02:32:40.975Z,0
2017-02-11T02:33:41.401Z,0
2017-02-11T02:34:41.426Z,0
2017-02-11T02:35:40.914Z,0
2017-02-11T02:36:40.291Z,0
2017-02-11T02:37:40.712Z,0
2017-02-11T02:38:41.140Z,0
2017-02-11T02:39:40.770Z,0
2017-02-11T02:40:41.685Z,0
2017-02-11T02:41:41.611Z,0
2017-02-11T02:42:40.843Z,0
2017-02-11T02:43:40.864Z,0
2017-02-11T02:44:41.692Z,0
2017-02-11T02:45:40.922Z,0
2017-02-11T02:46:41.591Z,0
2017-02-11T02:47:40.975Z,0
2017-02-11T02:48:41.001Z,0
2017-02-11T02:49:41.813Z,0
2017-02-11T02:50:41.860Z,0
2017-02-11T02:51:40.938Z,0
2017-02-11T02:52:41.107Z,0
2017-02-11T02:53:41.521Z,0
2017-02-11T02:54:40.756Z,0
2017-02-11T02:55:41.971Z,0
2017-02-11T02:56:41.699Z,0
2017-02-11T02:57:42.019Z,0
2017-02-11T02:58:42.057Z,0
2017-02-11T02:59:42.080Z,0
2017-02-11T03:00:40.913Z,0
2017-02-11T03:01:41.842Z,0
2017-02-11T03:02:41.358Z,0
2017-02-11T03:03:41.391Z,0
2017-02-11T03:04:42.213Z,0
2017-02-11T03:05:41.441Z,0
2017-02-11T03:06:42.521Z,0
2017-02-11T03:07:41.894Z,0
2017-02-11T03:08:41.524Z,0
2017-02-11T03:09:42.336Z,0
2017-02-11T03:10:41.973Z,0
2017-02-11T03:11:41.207Z,0
2017-02-11T03:12:42.667Z,0
2017-02-11T03:13:42.441Z,0
2017-02-11T03:14:42.076Z,0
2017-02-11T03:15:42.101Z,0
2017-02-11T03:16:42.522Z,0
2017-02-11T03:17:42.402Z,0
2017-02-11T03:18:42.179Z,0
2017-02-11T03:19:42.200Z,0
2017-02-11T03:20:41.832Z,0
2017-02-11T03:21:42.257Z,0
2017-02-11T03:22:42.930Z,0
2017-02-11T03:23:42.327Z,0
2017-02-11T03:24:41.935Z,0
2017-02-11T03:25:42.761Z,0
2017-02-11T03:26:42.392Z,0
2017-02-11T03:27:42.261Z,0
2017-02-11T03:28:42.836Z,0
2017-02-11T03:29:42.859Z,0
2017-02-11T03:30:42.496Z,0
2017-02-11T03:31:42.121Z,0
2017-02-11T03:32:42.798Z,0
2017-02-11T03:33:42.961Z,0
2017-02-11T03:34:42.988Z,0
2017-02-11T03:35:43.016Z,0
2017-02-11T03:36:43.036Z,0
2017-02-11T03:37:42.925Z,0
2017-02-11T03:38:43.099Z,0
2017-02-11T03:39:42.726Z,0
2017-02-11T03:40:42.364Z,0
2017-02-11T03:41:42.776Z,0
2017-02-11T03:42:43.305Z,0
2017-02-11T03:43:43.241Z,0
2017-02-11T03:44:42.066Z,0
2017-02-11T03:45:42.487Z,0
2017-02-11T03:46:42.917Z,0
2017-02-11T03:47:43.580Z,0
2017-02-11T03:48:43.358Z,0
2017-02-11T03:49:42.586Z,0
2017-02-11T03:50:43.410Z,0
2017-02-11T03:51:43.041Z,0
2017-02-11T03:52:43.312Z,0
2017-02-11T03:53:43.084Z,0
2017-02-11T03:54:42.719Z,0
2017-02-11T03:55:43.543Z,0
2017-02-11T03:56:42.399Z,0
2017-02-11T03:57:43.304Z,0
2017-02-11T03:58:43.610Z,0
2017-02-11T03:59:43.247Z,0
2017-02-11T04:00:43.675Z,0
2017-02-11T04:01:43.303Z,0
2017-02-11T04:02:43.176Z,0
2017-02-11T04:03:42.557Z,0
2017-02-11T04:04:43.378Z,0
2017-02-11T04:05:43.010Z,0
2017-02-11T04:06:43.432Z,0
2017-02-11T04:07:43.306Z,0
2017-02-11T04:08:43.876Z,0
2017-02-11T04:09:43.904Z,0
2017-02-11T04:10:43.926Z,0
2017-02-11T04:11:43.166Z,0
2017-02-11T04:12:44.003Z,0
2017-02-11T04:13:44.312Z,0
2017-02-11T04:14:43.239Z,0
2017-02-11T04:15:43.665Z,0
2017-02-11T04:16:43.306Z,0
2017-02-11T04:17:44.115Z,0
2017-02-11T04:18:43.995Z,0
2017-02-11T04:19:42.977Z,0
2017-02-11T04:20:42.994Z,0
2017-02-11T04:21:43.818Z,0
2017-02-11T04:22:44.240Z,0
2017-02-11T04:23:44.124Z,0
2017-02-11T04:24:43.500Z,0
2017-02-11T04:25:43.922Z,0
2017-02-11T04:26:44.346Z,0
2017-02-11T04:27:43.574Z,0
2017-02-11T04:28:44.503Z,0
2017-02-11T04:29:44.437Z,0
2017-02-11T04:30:43.656Z,0
2017-02-11T04:31:44.477Z,0
2017-02-11T04:32:44.106Z,0
2017-02-11T04:33:44.228Z,0
2017-02-11T04:34:44.548Z,0
2017-02-11T04:35:44.585Z,0
2017-02-11T04:36:44.601Z,0
2017-02-11T04:37:43.445Z,0
2017-02-11T04:38:44.113Z,0
2017-02-11T04:39:43.891Z,0
2017-02-11T04:40:44.716Z,0
2017-02-11T04:41:43.555Z,0
2017-02-11T04:42:43.971Z,0
2017-02-11T04:43:44.273Z,0
2017-02-11T04:44:44.812Z,0
2017-02-11T04:45:44.044Z,0
2017-02-11T04:46:44.073Z,0
2017-02-11T04:47:44.489Z,0
2017-02-11T04:48:45.192Z,0
2017-02-11T04:49:44.151Z,0
2017-02-11T04:50:44.167Z,0
2017-02-11T04:51:44.605Z,0
2017-02-11T04:52:45.017Z,0
2017-02-11T04:53:45.298Z,0
2017-02-11T04:54:44.278Z,0
2017-02-11T04:55:43.911Z,0
2017-02-11T04:56:44.723Z,0
2017-02-11T04:57:44.754Z,0
2017-02-11T04:58:45.036Z,0
2017-02-11T04:59:44.414Z,0
2017-02-11T05:00:45.219Z,0
2017-02-11T05:01:44.880Z,0
2017-02-11T05:02:44.489Z,0
2017-02-11T05:03:45.153Z,0
2017-02-11T05:04:44.533Z,0
2017-02-11T05:05:44.563Z,0
2017-02-11T05:06:44.983Z,0
2017-02-11T05:07:44.619Z,0
2017-02-11T05:08:45.681Z,0
2017-02-11T05:09:45.059Z,0
2017-02-11T05:10:45.095Z,0
2017-02-11T05:11:45.510Z,0
2017-02-11T05:12:44.752Z,0
2017-02-11T05:13:44.772Z,0
2017-02-11T05:14:45.445Z,0
2017-02-11T05:15:45.222Z,0
2017-02-11T05:16:44.847Z,0
2017-02-11T05:17:44.875Z,0
2017-02-11T05:18:45.692Z,0
2017-02-11T05:19:45.965Z,0
2017-02-11T05:20:45.350Z,0
2017-02-11T05:21:45.793Z,0
2017-02-11T05:22:45.011Z,0
2017-02-11T05:23:45.823Z,0
2017-02-11T05:24:46.092Z,0
2017-02-11T05:25:45.082Z,0
2017-02-11T05:26:44.714Z,0
2017-02-11T05:27:45.935Z,0
2017-02-11T05:28:45.159Z,0
2017-02-11T05:29:45.832Z,0
2017-02-11T05:30:45.608Z,0
2017-02-11T05:31:45.633Z,0
2017-02-11T05:32:46.058Z,0
2017-02-11T05:33:45.292Z,0
2017-02-11T05:34:45.172Z,0
2017-02-11T05:35:44.949Z,0
2017-02-11T05:36:46.169Z,0
2017-02-11T05:37:45.389Z,0
2017-02-11T05:38:46.213Z,0
2017-02-11T05:39:46.095Z,0
2017-02-11T05:40:45.872Z,0
2017-02-11T05:41:46.289Z,0
2017-02-11T05:42:45.915Z,0
2017-02-11T05:43:45.551Z,0
2017-02-11T05:44:45.826Z,0
2017-02-11T05:45:46.002Z,0
2017-02-11T05:46:46.015Z,0
2017-02-11T05:47:45.663Z,0
2017-02-11T05:48:46.465Z,0
2017-02-11T05:49:46.755Z,0
2017-02-11T05:50:46.129Z,0
2017-02-11T05:51:46.163Z,0
2017-02-11T05:52:45.388Z,0
2017-02-11T05:53:46.212Z,0
2017-02-11T05:54:46.495Z,0
2017-02-11T05:55:46.647Z,0
2017-02-11T05:56:46.279Z,0
2017-02-11T05:57:46.304Z,0
2017-02-11T05:58:45.937Z,0
2017-02-11T05:59:46.630Z,0
2017-02-11T06:00:46.787Z,0
2017-02-11T06:01:46.811Z,0
2017-02-11T06:02:46.047Z,0
2017-02-11T06:03:46.861Z,0
2017-02-11T06:04:47.142Z,0
2017-02-11T06:05:46.914Z,0
2017-02-11T06:06:46.151Z,0
2017-02-11T06:07:46.599Z,0
2017-02-11T06:08:46.205Z,0
2017-02-11T06:09:46.485Z,0
2017-02-11T06:10:47.046Z,0
2017-02-11T06:11:46.282Z,0
2017-02-11T06:12:46.707Z,0
2017-02-11T06:13:46.732Z,0
2017-02-11T06:14:47.400Z,0
2017-02-11T06:15:46.389Z,0
2017-02-11T06:16:47.198Z,0
2017-02-11T06:17:47.226Z,0
2017-02-11T06:18:46.463Z,0
2017-02-11T06:19:47.530Z,0
2017-02-11T06:20:46.908Z,0
2017-02-11T06:21:46.153Z,0
2017-02-11T06:22:47.354Z,0
2017-02-11T06:23:47.379Z,0
2017-02-11T06:24:47.408Z,0
2017-02-11T06:25:46.897Z,0
2017-02-11T06:26:46.689Z,0
2017-02-11T06:27:47.094Z,0
2017-02-11T06:28:46.721Z,4
2017-02-11T06:29:46.764Z,4
2017-02-11T06:30:47.420Z,0
2017-02-11T06:31:46.801Z,4
2017-02-11T06:32:46.830Z,8
2017-02-11T06:33:47.251Z,4
2017-02-11T06:34:46.884Z,4
2017-02-11T06:35:47.560Z,8
2017-02-11T06:36:47.718Z,8
2017-02-11T06:37:47.745Z,12
2017-02-11T06:38:47.382Z,16
2017-02-11T06:39:47.411Z,12
2017-02-11T06:40:47.948Z,16
2017-02-11T06:41:46.669Z,16
2017-02-11T06:42:47.089Z,20
2017-02-11T06:43:47.118Z,20
2017-02-11T06:44:46.751Z,24
2017-02-11T06:45:47.818Z,28
2017-02-11T06:46:47.988Z,28
2017-02-11T06:47:48.013Z,32
2017-02-11T06:48:48.040Z,32
2017-02-11T06:49:47.278Z,40
2017-02-11T06:50:47.954Z,44
2017-02-11T06:51:47.324Z,44
2017-02-11T06:52:48.145Z,44
2017-02-11T06:53:47.377Z,44
2017-02-11T06:54:47.810Z,48
2017-02-11T06:55:48.722Z,48
2017-02-11T06:56:47.856Z,56
2017-02-11T06:57:48.280Z,64
2017-02-11T06:58:47.911Z,72
2017-02-11T06:59:47.541Z,76
2017-02-11T07:00:47.822Z,84
2017-02-11T07:01:47.593Z,84
2017-02-11T07:02:47.616Z,84
2017-02-11T07:03:48.064Z,88
2017-02-11T07:04:48.499Z,96
2017-02-11T07:05:47.302Z,100
2017-02-11T07:06:48.759Z,108
2017-02-11T07:07:48.544Z,112
2017-02-11T07:08:48.567Z,132
2017-02-11T07:09:47.799Z,140
2017-02-11T07:10:47.829Z,144
2017-02-11T07:11:48.757Z,148
2017-02-11T07:12:48.283Z,152
2017-02-11T07:13:47.904Z,140
2017-02-11T07:14:47.932Z,136
2017-02-11T07:15:48.357Z,136
2017-02-11T07:16:48.243Z,140
2017-02-11T07:17:48.014Z,148
2017-02-11T07:18:48.440Z,156
2017-02-11T07:19:48.864Z,180
2017-02-11T07:20:48.489Z,192
2017-02-11T07:21:48.763Z,208
2017-02-11T07:22:48.542Z,220
2017-02-11T07:23:48.571Z,228
2017-02-11T07:24:48.607Z,232
2017-02-11T07:25:48.624Z,228
2017-02-11T07:26:48.901Z,248
2017-02-11T07:27:47.882Z,268
2017-02-11T07:28:48.703Z,280
2017-02-11T07:29:48.724Z,288
2017-02-11T07:30:48.755Z,300
2017-02-11T07:31:48.881Z,304
2017-02-11T07:32:48.805Z,304
2017-02-11T07:33:48.442Z,288
2017-02-11T07:34:48.859Z,272
2017-02-11T07:35:48.875Z,260
2017-02-11T07:36:49.556Z,256
2017-02-11T07:37:48.150Z,256
2017-02-11T07:38:48.570Z,260
2017-02-11T07:39:48.998Z,264
2017-02-11T07:40:49.417Z,276
2017-02-11T07:41:48.649Z,276
2017-02-11T07:42:48.929Z,276
2017-02-11T07:43:48.704Z,288
2017-02-11T07:44:48.729Z,288
2017-02-11T07:45:49.155Z,288
2017-02-11T07:46:49.571Z,336
2017-02-11T07:47:49.056Z,364
2017-02-11T07:48:48.833Z,388
2017-02-11T07:49:49.259Z,400
2017-02-11T07:50:49.674Z,384
2017-02-11T07:51:49.706Z,368
2017-02-11T07:52:49.192Z,356
2017-02-11T07:53:49.752Z,372
2017-02-11T07:54:48.993Z,376
2017-02-11T07:55:49.814Z,376
2017-02-11T07:56:49.835Z,368
2017-02-11T07:57:49.324Z,360
2017-02-11T07:58:49.496Z,348
2017-02-11T07:59:49.920Z,352
2017-02-11T08:00:49.949Z,380
2017-02-11T08:01:49.570Z,404
2017-02-11T08:02:50.254Z,464
2017-02-11T08:03:49.232Z,496
2017-02-11T08:04:49.252Z,528
2017-02-11T08:05:50.082Z,540
2017-02-11T08:06:49.306Z,556
2017-02-11T08:07:50.411Z,604
2017-02-11T08:08:49.788Z,688
2017-02-11T08:09:49.784Z,780
2017-02-11T08:10:50.221Z,788
2017-02-11T08:11:49.854Z,728
2017-02-11T08:12:50.506Z,676
2017-02-11T08:13:50.307Z,608
2017-02-11T08:14:49.528Z,540
2017-02-11T08:15:49.168Z,496
2017-02-11T08:16:50.366Z,520
2017-02-11T08:17:50.270Z,616
2017-02-11T08:18:50.407Z,716
2017-02-11T08:19:49.652Z,680
2017-02-11T08:20:50.517Z,668
2017-02-11T08:21:50.101Z,700
2017-02-11T08:22:49.989Z,764
2017-02-11T08:23:50.155Z,804
2017-02-11T08:24:49.386Z,900
2017-02-11T08:25:49.807Z,1108
2017-02-11T08:26:50.236Z,1312
2017-02-11T08:27:50.913Z,1392
2017-02-11T08:28:50.670Z,1296
2017-02-11T08:29:50.315Z,1200
2017-02-11T08:30:50.739Z,1092
2017-02-11T08:31:50.367Z,1068
2017-02-11T08:32:51.056Z,1008
2017-02-11T08:33:50.446Z,980
2017-02-11T08:34:50.851Z,892
2017-02-11T08:35:50.097Z,852
2017-02-11T08:36:50.499Z,892
2017-02-11T08:37:50.784Z,944
2017-02-11T08:38:50.555Z,964
2017-02-11T08:39:50.582Z,1036
2017-02-11T08:40:51.000Z,1072
2017-02-11T08:41:50.648Z,1128
2017-02-11T08:42:50.907Z,1216
2017-02-11T08:43:50.692Z,1340
2017-02-11T08:44:50.314Z,1396
2017-02-11T08:45:50.743Z,1328
2017-02-11T08:46:50.379Z,1252
2017-02-11T08:47:51.043Z,1220
2017-02-11T08:48:50.426Z,1096
2017-02-11T08:49:50.853Z,1016
2017-02-11T08:50:51.266Z,972
2017-02-11T08:51:50.896Z,872
2017-02-11T08:52:51.172Z,920
2017-02-11T08:53:50.982Z,984
2017-02-11T08:54:51.378Z,956
2017-02-11T08:55:51.414Z,892
2017-02-11T08:56:50.631Z,860
2017-02-11T08:57:51.051Z,812
2017-02-11T08:58:51.327Z,684
2017-02-11T08:59:51.102Z,652
2017-02-11T09:00:51.133Z,672
2017-02-11T09:01:51.154Z,716
2017-02-11T09:02:50.795Z,772
2017-02-11T09:03:51.867Z,812
2017-02-11T09:04:51.236Z,800
2017-02-11T09:05:51.269Z,672
2017-02-11T09:06:51.306Z,608
2017-02-11T09:07:51.707Z,500
2017-02-11T09:08:51.988Z,436
2017-02-11T09:09:51.761Z,416
2017-02-11T09:10:50.998Z,396
2017-02-11T09:11:51.422Z,400
2017-02-11T09:12:51.440Z,368
2017-02-11T09:13:51.576Z,344
2017-02-11T09:14:51.896Z,312
2017-02-11T09:15:51.530Z,256
2017-02-11T09:16:51.944Z,228
2017-02-11T09:17:51.963Z,240
2017-02-11T09:18:52.318Z,252
2017-02-11T09:19:51.632Z,292
2017-02-11T09:20:52.116Z,360
2017-02-11T09:21:51.684Z,428
2017-02-11T09:22:52.102Z,524
2017-02-11T09:23:51.991Z,688
2017-02-11T09:24:51.763Z,888
2017-02-11T09:25:52.189Z,1220
2017-02-11T09:26:51.421Z,1668
2017-02-11T09:27:51.829Z,2224
2017-02-11T09:28:52.767Z,2640
2017-02-11T09:29:51.490Z,2736
2017-02-11T09:30:51.527Z,2452
2017-02-11T09:31:51.945Z,2264
2017-02-11T09:32:52.372Z,1856
2017-02-11T09:33:52.254Z,1664
2017-02-11T09:34:51.234Z,1772
2017-02-11T09:35:52.448Z,1760
2017-02-11T09:36:52.081Z,1624
2017-02-11T09:37:52.513Z,1640
2017-02-11T09:38:52.390Z,2164
2017-02-11T09:39:51.764Z,2724
2017-02-11T09:40:52.190Z,3000
2017-02-11T09:41:52.216Z,2212
2017-02-11T09:42:52.233Z,2352
2017-02-11T09:43:52.764Z,2476
2017-02-11T09:44:52.693Z,2528
2017-02-11T09:45:52.707Z,2440
2017-02-11T09:46:52.735Z,2508
2017-02-11T09:47:51.968Z,2452
2017-02-11T09:48:52.033Z,2452
2017-02-11T09:49:53.066Z,2388
2017-02-11T09:50:52.051Z,1852
2017-02-11T09:51:52.871Z,1872
2017-02-11T09:52:52.100Z,2276
2017-02-11T09:53:52.132Z,2260
2017-02-11T09:54:52.833Z,2476
2017-02-11T09:55:52.976Z,2584
2017-02-11T09:56:52.610Z,2628
2017-02-11T09:57:53.023Z,2724
2017-02-11T09:58:52.263Z,2528
2017-02-11T09:59:56.864Z,2564
2017-02-11T10:00:52.714Z,2772
2017-02-11T10:01:52.739Z,3164
2017-02-11T10:02:52.767Z,3300
2017-02-11T10:03:52.396Z,2968
2017-02-11T10:04:53.074Z,2560
2017-02-11T10:05:53.261Z,2188
2017-02-11T10:06:52.873Z,1700
2017-02-11T10:07:52.898Z,1640
2017-02-11T10:08:52.521Z,1356
2017-02-11T10:09:52.803Z,1132
2017-02-11T10:10:53.381Z,980
2017-02-11T10:11:52.606Z,808
2017-02-11T10:12:52.639Z,728
2017-02-11T10:13:53.059Z,856
2017-02-11T10:14:53.325Z,968
2017-02-11T10:15:53.511Z,1008
2017-02-11T10:16:53.532Z,1240
2017-02-11T10:17:53.557Z,1572
2017-02-11T10:18:52.795Z,1704
2017-02-11T10:19:53.459Z,1760
2017-02-11T10:20:53.236Z,1652
2017-02-11T10:21:53.269Z,1764
2017-02-11T10:22:53.290Z,1908
2017-02-11T10:23:53.726Z,2016
2017-02-11T10:24:52.946Z,2012
2017-02-11T10:25:53.624Z,1740
2017-02-11T10:26:53.413Z,1520
2017-02-11T10:27:53.417Z,1244
2017-02-11T10:28:53.847Z,1232
2017-02-11T10:29:53.899Z,1312
2017-02-11T10:30:52.972Z,1268
2017-02-11T10:31:53.133Z,1228
2017-02-11T10:32:53.168Z,1132
2017-02-11T10:33:53.991Z,996
2017-02-11T10:34:53.215Z,952
2017-02-11T10:35:53.499Z,948
2017-02-11T10:36:53.661Z,1156
2017-02-11T10:37:53.717Z,1136
2017-02-11T10:38:53.717Z,1100
2017-02-11T10:39:54.146Z,1060
2017-02-11T10:40:54.024Z,1068
2017-02-11T10:41:54.191Z,1116
2017-02-11T10:42:54.214Z,1044
2017-02-11T10:43:53.853Z,1100
2017-02-11T10:44:53.885Z,1164
2017-02-11T10:45:54.155Z,1104
2017-02-11T10:46:54.323Z,1112
2017-02-11T10:47:53.947Z,1232
2017-02-11T10:48:53.585Z,1080
2017-02-11T10:49:54.000Z,988
2017-02-11T10:50:54.285Z,1092
2017-02-11T10:51:54.455Z,1096
2017-02-11T10:52:54.078Z,1208
2017-02-11T10:53:54.116Z,1132
2017-02-11T10:54:54.136Z,952
2017-02-11T10:55:54.814Z,836
2017-02-11T10:56:54.567Z,672
2017-02-11T10:57:53.821Z,524
2017-02-11T10:58:53.455Z,396
2017-02-11T10:59:53.916Z,380
2017-02-11T11:00:54.944Z,372
2017-02-11T11:01:54.721Z,300
2017-02-11T11:02:53.550Z,380
2017-02-11T11:03:54.407Z,448
2017-02-11T11:04:54.400Z,424
2017-02-11T11:05:55.077Z,408
2017-02-11T11:06:54.486Z,388
2017-02-11T11:07:54.082Z,404
2017-02-11T11:08:54.106Z,444
2017-02-11T11:09:54.532Z,408
2017-02-11T11:10:54.813Z,460
2017-02-11T11:11:54.608Z,556
2017-02-11T11:12:55.009Z,532
2017-02-11T11:13:53.846Z,724
2017-02-11T11:14:54.664Z,716
2017-02-11T11:15:55.224Z,708
2017-02-11T11:16:55.153Z,696
2017-02-11T11:17:54.354Z,656
2017-02-11T11:18:53.985Z,684
2017-02-11T11:19:55.195Z,808
2017-02-11T11:20:55.079Z,868
2017-02-11T11:21:54.867Z,708
2017-02-11T11:22:54.901Z,552
2017-02-11T11:23:54.105Z,548
2017-02-11T11:24:54.932Z,668
2017-02-11T11:25:55.627Z,568
2017-02-11T11:26:54.994Z,616
2017-02-11T11:27:55.005Z,600
2017-02-11T11:28:55.044Z,608
2017-02-11T11:29:55.062Z,644
2017-02-11T11:30:55.667Z,604
2017-02-11T11:31:55.365Z,680
2017-02-11T11:32:55.539Z,836
2017-02-11T11:33:55.183Z,1012
2017-02-11T11:34:55.198Z,1076
2017-02-11T11:35:55.283Z,1024
2017-02-11T11:36:55.512Z,1056
2017-02-11T11:37:54.881Z,1232
2017-02-11T11:38:55.734Z,1440
2017-02-11T11:39:54.538Z,1476
2017-02-11T11:40:55.394Z,1580
2017-02-11T11:41:56.020Z,1740
2017-02-11T11:42:55.025Z,1828
2017-02-11T11:43:55.430Z,1928
2017-02-11T11:44:55.859Z,2188
2017-02-11T11:45:55.883Z,2648
2017-02-11T11:46:56.048Z,3452
2017-02-11T11:47:55.944Z,4268
2017-02-11T11:48:55.566Z,4124
2017-02-11T11:49:55.619Z,3408
2017-02-11T11:50:54.830Z,2780
2017-02-11T11:51:55.904Z,2584
2017-02-11T11:52:55.680Z,2164
2017-02-11T11:53:55.693Z,1932
2017-02-11T11:54:55.723Z,1724
2017-02-11T11:55:54.963Z,1400
2017-02-11T11:56:55.636Z,1168
2017-02-11T11:57:55.816Z,956
2017-02-11T11:58:55.849Z,996
2017-02-11T11:59:55.855Z,1308
2017-02-11T12:00:55.487Z,1372
2017-02-11T12:01:56.024Z,1084
2017-02-11T12:02:56.341Z,1060
2017-02-11T12:03:55.961Z,920
2017-02-11T12:04:55.991Z,748
2017-02-11T12:05:56.412Z,692
2017-02-11T12:06:55.901Z,748
2017-02-11T12:07:55.675Z,916
2017-02-11T12:08:55.702Z,920
2017-02-11T12:09:56.526Z,824
2017-02-11T12:10:56.152Z,652
2017-02-11T12:11:56.831Z,596
2017-02-11T12:12:55.813Z,664
2017-02-11T12:13:56.246Z,756
2017-02-11T12:14:56.262Z,972
2017-02-11T12:15:56.682Z,1096
2017-02-11T12:16:56.962Z,1016
2017-02-11T12:17:56.736Z,932
2017-02-11T12:18:56.368Z,852
2017-02-11T12:19:56.402Z,864
2017-02-11T12:20:56.418Z,1020
2017-02-11T12:21:56.439Z,1160
2017-02-11T12:22:55.931Z,1332
2017-02-11T12:23:56.500Z,1332
2017-02-11T12:24:56.530Z,1360
2017-02-11T12:25:56.950Z,1276
2017-02-11T12:26:56.583Z,1096
2017-02-11T12:27:56.458Z,1020
2017-02-11T12:28:56.249Z,1000
2017-02-11T12:29:57.066Z,1100
2017-02-11T12:30:56.302Z,1452
2017-02-11T12:31:56.712Z,1716
2017-02-11T12:32:57.236Z,1816
2017-02-11T12:33:56.772Z,1948
2017-02-11T12:34:56.801Z,2240
2017-02-11T12:35:56.034Z,2388
2017-02-11T12:36:57.403Z,2348
2017-02-11T12:37:56.730Z,2316
2017-02-11T12:38:56.112Z,2420
2017-02-11T12:39:56.553Z,3060
2017-02-11T12:40:57.358Z,4048
2017-02-11T12:41:57.387Z,5128
2017-02-11T12:42:57.263Z,3844
2017-02-11T12:43:57.040Z,2888
2017-02-11T12:44:56.673Z,2764
2017-02-11T12:45:57.499Z,2832
2017-02-11T12:46:57.116Z,3684
2017-02-11T12:47:57.407Z,4884
2017-02-11T12:48:57.584Z,6428
2017-02-11T12:49:57.220Z,5568
2017-02-11T12:50:56.834Z,3524
2017-02-11T12:51:57.255Z,3364
2017-02-11T12:52:57.963Z,3652
2017-02-11T12:53:56.910Z,3400
2017-02-11T12:54:56.945Z,2856
2017-02-11T12:55:57.760Z,2312
2017-02-11T12:56:57.394Z,2228
2017-02-11T12:57:58.083Z,1796
2017-02-11T12:58:57.448Z,1416
2017-02-11T12:59:57.902Z,992
2017-02-11T13:00:57.097Z,836
2017-02-11T13:01:57.922Z,812
2017-02-11T13:02:57.563Z,964
2017-02-11T13:03:57.591Z,1164
2017-02-11T13:04:57.226Z,1124
2017-02-11T13:05:57.238Z,1016
2017-02-11T13:06:57.669Z,948
2017-02-11T13:07:57.299Z,1052
2017-02-11T13:08:57.960Z,1216
2017-02-11T13:09:57.348Z,1388
2017-02-11T13:10:57.785Z,1324
2017-02-11T13:11:57.802Z,1232
2017-02-11T13:12:57.434Z,1424
2017-02-11T13:13:58.500Z,1632
2017-02-11T13:14:57.876Z,1644
2017-02-11T13:15:57.513Z,1408
2017-02-11T13:16:58.333Z,1292
2017-02-11T13:17:57.569Z,1376
2017-02-11T13:18:57.703Z,1268
2017-02-11T13:19:58.419Z,1072
2017-02-11T13:20:57.656Z,928
2017-02-11T13:21:57.665Z,736
2017-02-11T13:22:57.702Z,700
2017-02-11T13:23:58.379Z,656
2017-02-11T13:24:58.151Z,680
2017-02-11T13:25:58.576Z,684
2017-02-11T13:26:58.205Z,724
2017-02-11T13:27:58.237Z,740
2017-02-11T13:28:58.515Z,720
2017-02-11T13:29:58.296Z,560
2017-02-11T13:30:58.708Z,432
2017-02-11T13:31:58.728Z,400
2017-02-11T13:32:58.362Z,408
2017-02-11T13:33:57.854Z,448
2017-02-11T13:34:58.027Z,412
2017-02-11T13:35:57.671Z,472
2017-02-11T13:36:58.913Z,592
2017-02-11T13:37:58.502Z,724
2017-02-11T13:38:58.802Z,784
2017-02-11T13:39:58.159Z,852
2017-02-11T13:40:58.987Z,956
2017-02-11T13:41:59.052Z,1072
2017-02-11T13:42:58.645Z,1164
2017-02-11T13:43:59.317Z,1372
2017-02-11T13:44:59.089Z,1760
2017-02-11T13:45:59.119Z,1768
2017-02-11T13:46:58.772Z,1524
2017-02-11T13:47:58.380Z,1312
2017-02-11T13:48:58.405Z,1132
2017-02-11T13:49:59.086Z,1040
2017-02-11T13:50:58.455Z,960
2017-02-11T13:51:58.488Z,896
2017-02-11T13:52:58.917Z,856
2017-02-11T13:53:58.944Z,768
2017-02-11T13:54:58.822Z,648
2017-02-11T13:55:58.599Z,688
2017-02-11T13:56:58.624Z,640
2017-02-11T13:57:59.445Z,620
2017-02-11T13:58:59.469Z,516
2017-02-11T13:59:59.362Z,436
2017-02-11T14:00:59.522Z,376
2017-02-11T14:01:59.591Z,392
2017-02-11T14:02:58.392Z,384
2017-02-11T14:03:59.205Z,472
2017-02-11T14:04:58.689Z,556
2017-02-11T14:05:59.656Z,560
2017-02-11T14:06:59.303Z,584
2017-02-11T14:07:59.705Z,664